Time;durP1;ratioP1;P1;durP2;ratioP2;P2;SDS_P1;SDS_P2;PMS_P1;PMS_P2;Temp;Humidity;BMP_temperature;BMP_pressure;BME280_temperature;BME280_humidity;BME280_pressure;Samples;Min_cycle;Max_cycle;Signal;HPM_P1;HPM_P2
2022/07/25 00:01:49;;;;;;;5.97;5.22;;;;;;;30.32;43.96;96923.78;5073432;28;20099;-28
2022/07/25 00:04:14;;;;;;;5.00;4.45;;;;;;;30.34;43.65;96910.00;5071916;28;20033;-28
2022/07/25 00:06:41;;;;;;;5.13;4.72;;;;;;;30.34;43.58;96907.19;5072558;28;20443;-28
2022/07/25 00:09:07;;;;;;;5.85;5.18;;;;;;;30.34;43.97;96907.19;5073229;28;20074;-28
2022/07/25 00:11:32;;;;;;;6.15;5.35;;;;;;;30.32;44.14;96909.78;5073545;28;20047;-28
2022/07/25 00:13:58;;;;;;;5.45;4.93;;;;;;;30.35;43.63;96903.09;5073556;28;20471;-28
2022/07/25 00:16:23;;;;;;;5.68;4.82;;;;;;;30.32;44.04;96906.25;5072832;28;20021;-28
2022/07/25 00:18:49;;;;;;;5.50;5.00;;;;;;;30.35;43.46;96903.09;5073040;28;20021;-29
2022/07/25 00:21:15;;;;;;;5.93;5.30;;;;;;;30.31;44.08;96899.16;5073371;28;20037;-28
2022/07/25 00:23:40;;;;;;;5.30;4.88;;;;;;;30.32;43.55;96907.00;5073175;28;20028;-28
2022/07/25 00:26:06;;;;;;;5.70;5.00;;;;;;;30.30;43.81;96898.38;5073433;28;20074;-28
2022/07/25 00:28:32;;;;;;;5.75;5.07;;;;;;;30.29;43.60;96891.28;5073380;28;20025;-28
2022/07/25 00:30:57;;;;;;;5.72;5.18;;;;;;;30.32;43.34;96897.84;5073307;28;20101;-28
2022/07/25 00:33:23;;;;;;;5.65;5.13;;;;;;;30.33;43.82;96896.56;5073376;28;20033;-29
2022/07/25 00:35:48;;;;;;;5.95;5.40;;;;;;;30.31;43.97;96883.09;5073354;28;20063;-28
2022/07/25 00:38:14;;;;;;;5.20;4.70;;;;;;;30.29;43.48;96888.50;5073179;28;20028;-28
2022/07/25 00:40:39;;;;;;;6.53;5.05;;;;;;;30.29;43.91;96890.56;5073105;28;20017;-28
2022/07/25 00:43:05;;;;;;;5.75;5.20;;;;;;;30.27;43.69;96879.94;5073488;28;20025;-29
2022/07/25 00:45:30;;;;;;;6.38;5.25;;;;;;;30.29;43.53;96890.56;5073136;28;20052;-28
2022/07/25 00:47:56;;;;;;;6.53;5.07;;;;;;;30.29;43.75;96888.50;5073145;28;20032;-28
2022/07/25 00:50:21;;;;;;;6.43;5.40;;;;;;;30.31;43.72;96883.09;5072904;28;20489;-28
2022/07/25 00:52:47;;;;;;;6.00;5.40;;;;;;;30.29;43.55;96882.19;5073046;28;20063;-28
2022/07/25 00:55:13;;;;;;;5.45;4.93;;;;;;;30.29;43.42;96880.09;5073171;28;20052;-29
2022/07/25 00:57:39;;;;;;;5.95;4.95;;;;;;;30.29;43.41;96874.50;5072986;28;20028;-28
2022/07/25 01:00:07;;;;;;;6.32;5.32;;;;;;;30.29;43.46;96876.59;5073022;28;20020;-28
2022/07/25 01:02:33;;;;;;;5.93;5.35;;;;;;;30.29;43.67;96874.50;5072942;28;20541;-28
2022/07/25 01:04:58;;;;;;;7.03;5.43;;;;;;;30.30;43.64;96869.66;5072906;28;20060;-28
2022/07/25 01:07:25;;;;;;;5.68;5.18;;;;;;;30.30;43.45;96864.81;5072803;28;20020;-28
2022/07/25 01:09:50;;;;;;;5.75;5.18;;;;;;;30.29;43.05;96868.91;5072861;28;20076;-28
2022/07/25 01:12:16;;;;;;;6.07;4.95;;;;;;;30.26;43.54;96870.03;5072794;28;20439;-29
2022/07/25 01:14:41;;;;;;;5.53;4.63;;;;;;;30.27;43.31;96871.53;5072797;28;20031;-29
2022/07/25 01:17:07;;;;;;;5.88;5.32;;;;;;;30.27;43.41;96873.56;5072746;28;20470;-28
2022/07/25 01:19:32;;;;;;;5.78;5.18;;;;;;;30.25;43.70;96870.56;5072747;28;20043;-28
2022/07/25 01:21:58;;;;;;;6.03;5.43;;;;;;;30.23;43.57;96870.38;5072692;28;20096;-28
2022/07/25 01:24:23;;;;;;;5.63;5.18;;;;;;;30.27;43.58;96862.38;5073026;28;20020;-28
2022/07/25 01:26:49;;;;;;;6.05;5.22;;;;;;;30.23;43.02;96862.72;5072627;28;20032;-29
2022/07/25 01:29:14;;;;;;;5.03;4.53;;;;;;;30.24;43.19;96871.88;5075495;28;20024;-28
2022/07/25 01:31:40;;;;;;;5.82;5.13;;;;;;;30.24;43.57;96877.47;5076263;28;20020;-28
2022/07/25 01:34:05;;;;;;;5.53;5.03;;;;;;;30.25;43.05;96865.72;5076246;28;20086;-28
2022/07/25 01:36:31;;;;;;;6.25;5.00;;;;;;;30.22;43.53;96869.63;5076194;28;20103;-28
2022/07/25 01:38:56;;;;;;;5.75;5.05;;;;;;;30.25;43.38;96867.78;5076177;28;20535;-28
2022/07/25 01:41:21;;;;;;;6.75;5.10;;;;;;;30.23;43.23;96859.94;5076177;28;20016;-28
2022/07/25 01:43:47;;;;;;;5.57;5.05;;;;;;;30.25;43.25;96862.19;5076193;28;20043;-28
2022/07/25 01:46:12;;;;;;;5.55;5.05;;;;;;;30.25;43.21;96868.53;5076127;28;20097;-29
2022/07/25 01:48:39;;;;;;;5.93;5.32;;;;;;;30.26;43.04;96861.63;5075855;28;20032;-29
2022/07/25 01:51:05;;;;;;;5.55;5.03;;;;;;;30.26;43.32;96870.03;5075888;28;20024;-28
2022/07/25 01:53:31;;;;;;;5.57;5.00;;;;;;;30.23;42.82;96861.97;5075932;28;20031;-27
2022/07/25 01:55:56;;;;;;;5.43;4.93;;;;;;;30.20;43.37;96860.28;5075966;28;20394;-28
2022/07/25 01:58:22;;;;;;;5.93;5.20;;;;;;;30.21;43.30;96862.53;5076190;28;20025;-29
2022/07/25 02:00:47;;;;;;;6.68;5.13;;;;;;;30.20;43.35;96858.22;5075897;28;20029;-29
2022/07/25 02:03:31;;;;;;;6.07;5.18;;;;;;;30.21;43.09;96862.53;5075633;28;20024;-28
2022/07/25 02:05:58;;;;;;;5.38;4.70;;;;;;;30.19;43.10;96853.16;5075894;28;20035;-28
2022/07/25 02:08:24;;;;;;;5.30;4.80;;;;;;;30.24;43.09;96853.03;5075651;28;20394;-28
2022/07/25 02:10:49;;;;;;;5.60;4.95;;;;;;;30.23;42.72;96848.75;5075542;28;20044;-28
2022/07/25 02:13:15;;;;;;;5.13;4.63;;;;;;;30.18;42.96;96846.81;5075962;28;20024;-28
2022/07/25 02:15:40;;;;;;;5.70;5.07;;;;;;;30.21;43.29;96845.72;5075766;28;20027;-29
2022/07/25 02:18:06;;;;;;;6.00;5.40;;;;;;;30.19;43.30;96841.97;5075725;28;20286;-28
2022/07/25 02:20:31;;;;;;;5.10;4.60;;;;;;;30.21;43.25;96850.56;5075441;28;20035;-28
2022/07/25 02:22:57;;;;;;;5.68;5.18;;;;;;;30.22;43.24;96849.28;5075495;28;20042;-28
2022/07/25 02:25:22;;;;;;;7.50;4.97;;;;;;;30.20;43.05;96844.22;5075308;28;20031;-28
2022/07/25 02:27:48;;;;;;;5.22;4.72;;;;;;;30.23;42.64;96845.19;5075390;28;20024;-28
2022/07/25 02:30:13;;;;;;;5.57;4.78;;;;;;;30.18;43.24;96844.03;5075198;28;20051;-28
2022/07/25 02:32:39;;;;;;;5.47;4.97;;;;;;;30.20;43.38;96843.47;5075300;28;20051;-28
2022/07/25 02:35:05;;;;;;;5.00;4.55;;;;;;;30.17;43.21;96845.31;5075331;28;20023;-28
2022/07/25 02:37:31;;;;;;;5.15;4.72;;;;;;;30.17;43.18;96844.56;5075060;28;20433;-29
2022/07/25 02:39:57;;;;;;;5.60;4.90;;;;;;;30.17;42.92;96836.94;5074599;28;20024;-29
2022/07/25 02:42:22;;;;;;;6.88;4.93;;;;;;;30.18;43.18;96841.22;5075116;28;20074;-28
2022/07/25 02:44:48;;;;;;;5.95;5.32;;;;;;;30.16;43.32;96843.09;5073812;28;20024;-29
2022/07/25 02:47:13;;;;;;;5.38;4.88;;;;;;;30.19;43.12;96836.38;5075156;28;20055;-28
2022/07/25 02:49:39;;;;;;;5.18;4.75;;;;;;;30.17;43.12;96834.13;5074966;28;20016;-28
2022/07/25 02:52:06;;;;;;;5.95;5.28;;;;;;;30.16;43.03;96832.66;5074811;28;20386;-28
2022/07/25 02:54:31;;;;;;;6.15;5.22;;;;;;;30.17;43.09;96834.13;5074884;28;20024;-28
2022/07/25 02:56:56;;;;;;;5.68;5.18;;;;;;;30.14;43.03;96832.47;5074726;28;20024;-28
2022/07/25 02:59:22;;;;;;;5.55;4.97;;;;;;;30.17;42.82;96828.53;5074780;28;20035;-28
2022/07/25 03:01:48;;;;;;;5.55;5.05;;;;;;;30.16;42.83;96827.06;5074431;28;20028;-28
2022/07/25 03:04:13;;;;;;;5.88;5.00;;;;;;;30.15;42.93;96824.81;5074757;28;20024;-28
2022/07/25 03:06:39;;;;;;;5.53;5.00;;;;;;;30.13;42.65;96830.94;5074753;28;20421;-29
2022/07/25 03:09:04;;;;;;;6.30;5.22;;;;;;;30.15;43.11;96824.81;5074462;28;20123;-28
2022/07/25 03:11:30;;;;;;;7.43;5.25;;;;;;;30.14;43.06;96829.66;5074758;28;20020;-28
2022/07/25 03:13:56;;;;;;;5.72;5.22;;;;;;;30.15;42.79;96819.97;5073413;28;20016;-29
2022/07/25 03:16:22;;;;;;;6.03;5.22;;;;;;;30.14;43.07;96823.31;5074422;28;20111;-28
2022/07/25 03:18:47;;;;;;;5.75;5.20;;;;;;;30.13;42.94;96824.63;5074244;28;20518;-28
2022/07/25 03:21:13;;;;;;;5.90;5.30;;;;;;;30.14;42.58;96828.91;5074363;28;20130;-29
2022/07/25 03:23:39;;;;;;;6.15;5.07;;;;;;;30.13;42.56;96827.41;5074173;28;20115;-28
2022/07/25 03:26:04;;;;;;;5.93;5.32;;;;;;;30.13;42.50;96819.75;5074118;28;20043;-28
2022/07/25 03:28:30;;;;;;;5.57;4.90;;;;;;;30.14;42.40;96818.47;5074254;28;20481;-28
2022/07/25 03:30:55;;;;;;;5.82;5.22;;;;;;;30.13;42.52;96822.56;5074052;28;20024;-28
2022/07/25 03:33:21;;;;;;;6.15;5.65;;;;;;;30.14;42.70;96824.06;5074099;28;20471;-28
2022/07/25 03:35:47;;;;;;;6.45;5.85;;;;;;;30.14;42.53;96821.28;5073787;28;20028;-28
2022/07/25 03:38:12;;;;;;;5.82;5.22;;;;;;;30.12;42.29;96823.84;5074004;28;20107;-28
2022/07/25 03:40:38;;;;;;;6.03;5.40;;;;;;;30.11;42.44;96830.00;5073992;28;20021;-28
2022/07/25 03:43:04;;;;;;;5.75;5.25;;;;;;;30.10;42.66;96829.25;5074048;28;20097;-28
2022/07/25 03:45:29;;;;;;;6.13;5.63;;;;;;;30.11;42.53;96818.81;5072555;28;20032;-28
2022/07/25 03:47:55;;;;;;;7.32;5.95;;;;;;;30.11;42.59;96827.19;5073792;28;20362;-29
2022/07/25 03:50:20;;;;;;;6.40;5.80;;;;;;;30.12;42.07;96828.69;5073550;28;20027;-28
2022/07/25 03:52:46;;;;;;;5.90;5.30;;;;;;;30.08;42.55;96831.09;5072405;28;20027;-28
2022/07/25 03:55:11;;;;;;;6.18;5.65;;;;;;;30.10;42.37;96840.44;5073649;28;20024;-28
2022/07/25 03:57:37;;;;;;;6.20;5.60;;;;;;;30.12;41.91;96835.06;5073773;28;20028;-28
2022/07/25 04:00:06;;;;;;;6.20;5.60;;;;;;;30.09;42.23;96838.19;5073692;28;20081;-30
2022/07/25 04:02:31;;;;;;;7.55;5.88;;;;;;;30.08;41.98;96839.47;5073547;28;20032;-28
2022/07/25 04:04:57;;;;;;;6.80;6.18;;;;;;;30.09;42.25;96838.94;5073538;28;20033;-28
2022/07/25 04:07:22;;;;;;;6.50;5.82;;;;;;;30.08;42.05;96845.06;5073505;28;20021;-28
2022/07/25 04:09:47;;;;;;;6.00;5.50;;;;;;;30.10;41.87;96840.44;5073265;28;20087;-29
2022/07/25 04:12:13;;;;;;;6.82;6.22;;;;;;;30.09;41.84;96843.78;5072140;28;20056;-29
2022/07/25 04:14:38;;;;;;;6.05;5.45;;;;;;;30.07;41.83;96838.72;5073380;28;20484;-28
2022/07/25 04:17:05;;;;;;;6.10;5.50;;;;;;;30.09;41.78;96846.56;5073421;28;20028;-27
2022/07/25 04:19:30;;;;;;;5.60;5.05;;;;;;;30.06;41.69;96851.22;5073844;28;20382;-28
2022/07/25 04:21:56;;;;;;;6.50;5.60;;;;;;;30.07;41.66;96844.31;5073592;28;20017;-28
2022/07/25 04:24:21;;;;;;;6.85;5.85;;;;;;;30.06;41.69;96851.22;5073494;28;20024;-28
2022/07/25 04:26:47;;;;;;;7.07;6.00;;;;;;;30.06;42.02;96848.41;5073234;28;20024;-29
2022/07/25 04:29:12;;;;;;;7.32;6.10;;;;;;;30.09;41.64;96850.13;5073424;28;20020;-28
2022/07/25 04:31:38;;;;;;;6.00;5.50;;;;;;;30.11;41.82;96850.31;5073128;28;20446;-28
2022/07/25 04:34:03;;;;;;;6.70;5.53;;;;;;;30.06;41.99;96848.41;5073309;28;20100;-28
2022/07/25 04:36:29;;;;;;;7.38;6.60;;;;;;;30.05;41.77;96849.72;5073186;28;20359;-28
2022/07/25 04:38:54;;;;;;;6.55;5.88;;;;;;;30.06;41.55;96850.47;5073069;28;20028;-27
2022/07/25 04:41:19;;;;;;;6.38;5.75;;;;;;;30.04;41.78;96853.06;5073257;28;20028;-28
2022/07/25 04:43:45;;;;;;;7.38;5.85;;;;;;;30.06;41.96;96851.22;5073007;28;20033;-29
2022/07/25 04:46:10;;;;;;;5.72;5.22;;;;;;;30.06;41.51;96848.41;5073262;28;20067;-28
2022/07/25 04:48:36;;;;;;;7.35;6.10;;;;;;;30.06;41.42;96856.81;5072996;28;20500;-28
2022/07/25 04:51:01;;;;;;;6.65;6.05;;;;;;;30.03;41.59;96854.38;5073152;28;20032;-28
2022/07/25 04:53:27;;;;;;;7.30;5.63;;;;;;;30.04;41.68;96853.81;5073280;28;20020;-27
2022/07/25 04:55:52;;;;;;;6.60;5.93;;;;;;;30.06;41.46;96842.81;5073025;28;20031;-28
2022/07/25 04:58:18;;;;;;;6.88;5.95;;;;;;;30.06;41.52;96844.88;5073151;28;20035;-28
2022/07/25 05:00:43;;;;;;;6.60;5.97;;;;;;;30.06;41.63;96845.63;5072819;28;20379;-28
2022/07/25 05:03:09;;;;;;;6.50;5.85;;;;;;;30.04;41.61;96842.63;5073999;28;20024;-27
2022/07/25 05:05:35;;;;;;;7.28;6.53;;;;;;;30.00;41.43;96842.97;5076851;28;20031;-28
2022/07/25 05:08:00;;;;;;;7.15;6.40;;;;;;;30.02;41.72;96848.03;5076909;28;20425;-28
2022/07/25 05:10:27;;;;;;;8.60;7.07;;;;;;;30.04;41.63;96842.63;5075593;28;20041;-28
2022/07/25 05:12:53;;;;;;;8.02;7.30;;;;;;;30.02;41.76;96844.47;5074939;28;20032;-28
2022/07/25 05:15:19;;;;;;;8.45;7.07;;;;;;;29.98;41.66;96839.97;5073528;28;20109;-29
2022/07/25 05:17:44;;;;;;;8.30;7.45;;;;;;;30.00;41.78;96847.81;5075207;28;20021;-29
2022/07/25 05:20:11;;;;;;;9.60;7.75;;;;;;;30.00;41.70;96836.63;5074675;28;20024;-28
2022/07/25 05:22:37;;;;;;;8.65;7.57;;;;;;;30.00;41.85;96842.22;5074437;28;20442;-28
2022/07/25 05:25:06;;;;;;;8.68;7.25;;;;;;;29.99;41.80;96838.69;5074292;28;20099;-27
2022/07/25 05:27:31;;;;;;;10.38;7.80;;;;;;;30.00;41.48;96837.38;5074557;28;20029;-28
2022/07/25 05:29:57;;;;;;;9.75;8.00;;;;;;;29.99;41.69;96832.34;5074531;28;20028;-29
2022/07/25 05:32:23;;;;;;;8.15;7.28;;;;;;;30.00;41.85;96836.63;5074297;28;20027;-28
2022/07/25 05:34:49;;;;;;;8.88;7.65;;;;;;;30.00;41.33;96831.03;5074315;28;20024;-28
2022/07/25 05:37:15;;;;;;;8.73;7.20;;;;;;;30.00;41.75;96836.63;5074541;28;20032;-28
2022/07/25 05:39:40;;;;;;;9.70;7.03;;;;;;;29.99;41.72;96835.13;5074527;28;20082;-28
2022/07/25 05:42:06;;;;;;;8.90;7.32;;;;;;;29.99;41.67;96835.13;5074218;28;20021;-28
2022/07/25 05:44:32;;;;;;;11.82;7.38;;;;;;;30.03;41.76;96841.13;5074382;28;20056;-28
2022/07/25 05:46:58;;;;;;;9.50;7.13;;;;;;;30.00;41.81;96842.22;5073861;28;20028;-28
2022/07/25 05:49:23;;;;;;;8.18;7.32;;;;;;;30.01;41.66;96835.34;5074306;28;20466;-28
2022/07/25 05:51:49;;;;;;;9.55;7.28;;;;;;;30.03;41.51;96846.72;5073971;28;20031;-28
2022/07/25 05:54:14;;;;;;;8.82;7.88;;;;;;;30.01;41.25;96838.13;5074194;28;20124;-28
2022/07/25 05:56:40;;;;;;;7.70;6.90;;;;;;;30.00;41.43;96831.03;5073968;28;20028;-28
2022/07/25 05:59:05;;;;;;;7.97;6.82;;;;;;;30.00;41.43;96829.00;5073759;28;20107;-28
2022/07/25 06:01:31;;;;;;;8.68;7.30;;;;;;;30.03;41.48;96829.94;5074050;28;20024;-28
2022/07/25 06:03:56;;;;;;;7.75;6.90;;;;;;;30.00;41.59;96834.59;5074049;28;20025;-28
2022/07/25 06:06:22;;;;;;;9.57;7.88;;;;;;;30.03;41.64;96829.94;5073873;28;20048;-28
2022/07/25 06:08:47;;;;;;;7.68;6.85;;;;;;;30.03;41.65;96835.53;5073715;28;20450;-29
2022/07/25 06:11:13;;;;;;;8.38;6.95;;;;;;;30.04;41.50;96825.88;5073592;28;20545;-29
2022/07/25 06:13:38;;;;;;;8.07;7.05;;;;;;;30.02;41.73;96836.84;5073524;28;20024;-28
2022/07/25 06:16:04;;;;;;;7.80;6.85;;;;;;;30.01;41.61;96832.53;5071020;28;20069;-30
2022/07/25 06:18:30;;;;;;;7.85;6.80;;;;;;;30.03;41.43;96829.94;5073652;28;20081;-28
2022/07/25 06:20:55;;;;;;;10.35;7.18;;;;;;;30.04;41.78;96831.44;5073414;28;20347;-28
2022/07/25 06:23:21;;;;;;;9.45;7.05;;;;;;;30.02;41.97;96828.44;5073258;28;20448;-28
2022/07/25 06:25:47;;;;;;;10.00;7.22;;;;;;;30.02;41.90;96822.84;5073245;28;20136;-28
2022/07/25 06:28:13;;;;;;;11.35;6.82;;;;;;;29.88;41.59;96829.81;5073703;28;20027;-28
2022/07/25 06:30:43;;;;;;;8.63;6.63;;;;;;;29.98;41.36;96828.03;5082091;28;20074;-29
2022/07/25 06:33:08;;;;;;;8.50;6.65;;;;;;;30.01;41.55;96826.94;5093638;28;20134;-28
2022/07/25 06:35:34;;;;;;;7.18;6.30;;;;;;;30.07;41.45;96835.19;5093576;28;20095;-28
2022/07/25 06:37:59;;;;;;;8.43;7.15;;;;;;;30.04;41.39;96825.13;5093668;28;20427;-29
2022/07/25 06:40:25;;;;;;;7.13;6.40;;;;;;;30.05;41.31;96832.19;5093399;28;20035;-28
2022/07/25 06:42:51;;;;;;;7.30;6.60;;;;;;;30.05;41.67;96826.59;5093249;28;20028;-29
2022/07/25 06:45:16;;;;;;;10.00;6.68;;;;;;;30.04;41.81;96825.13;5093277;28;20024;-28
2022/07/25 06:47:43;;;;;;;7.43;6.32;;;;;;;29.91;41.72;96823.13;5093239;28;20020;-29
2022/07/25 06:50:14;;;;;;;6.78;6.05;;;;;;;29.98;41.77;96828.03;5093052;28;20066;-28
2022/07/25 06:52:40;;;;;;;7.38;6.22;;;;;;;29.94;41.82;96822.75;5093247;28;20035;-29
2022/07/25 06:55:08;;;;;;;6.85;6.15;;;;;;;30.02;41.48;96824.91;5092860;28;20099;-28
2022/07/25 06:57:33;;;;;;;8.45;6.75;;;;;;;30.00;41.38;96829.00;5092631;28;20546;-28
2022/07/25 06:59:59;;;;;;;7.40;6.47;;;;;;;29.98;41.74;96825.25;5092802;28;20031;-28
2022/07/25 07:02:24;;;;;;;8.50;6.47;;;;;;;29.99;41.86;96829.53;5092789;28;20016;-29
2022/07/25 07:04:50;;;;;;;6.78;6.07;;;;;;;29.95;41.90;96829.84;5093043;28;20367;-28
2022/07/25 07:07:15;;;;;;;10.55;6.53;;;;;;;30.00;41.92;96823.41;5092630;28;20386;-28
2022/07/25 07:09:41;;;;;;;6.88;6.20;;;;;;;29.91;42.12;96825.91;5092654;28;20406;-28
2022/07/25 07:12:13;;;;;;;7.63;6.55;;;;;;;29.85;42.18;96822.50;5092631;28;20028;-29
2022/07/25 07:14:38;;;;;;;8.57;6.47;;;;;;;29.96;42.14;96827.84;5077647;28;20058;-29
2022/07/25 07:17:04;;;;;;;7.13;5.50;;;;;;;29.93;42.38;96826.84;5074623;28;20104;-30
2022/07/25 07:19:30;;;;;;;8.30;6.47;;;;;;;29.88;42.05;96824.97;5074387;28;20032;-28
2022/07/25 07:21:56;;;;;;;6.60;6.00;;;;;;;29.91;42.26;96820.31;5074189;28;20025;-28
2022/07/25 07:24:22;;;;;;;7.15;6.45;;;;;;;30.07;41.60;96827.53;5074262;28;20099;-28
2022/07/25 07:26:47;;;;;;;9.50;6.65;;;;;;;29.28;43.43;96817.50;5073919;28;20032;-28
2022/07/25 07:29:13;;;;;;;7.55;6.20;;;;;;;29.60;42.82;96820.06;5073699;28;20063;-29
2022/07/25 07:31:38;;;;;;;10.48;6.90;;;;;;;29.65;42.63;96813.59;5074206;28;20398;-28
2022/07/25 07:34:04;;;;;;;8.77;6.80;;;;;;;29.75;42.49;96813.09;5074344;28;20024;-28
2022/07/25 07:36:29;;;;;;;7.03;6.10;;;;;;;29.86;42.36;96821.19;5073976;28;20025;-28
2022/07/25 07:38:55;;;;;;;7.28;5.75;;;;;;;29.67;42.52;96803.91;5073571;28;20060;-29
2022/07/25 07:41:20;;;;;;;7.03;6.32;;;;;;;29.74;42.45;96811.59;5074090;28;20051;-28
2022/07/25 07:43:46;;;;;;;10.02;6.82;;;;;;;29.75;42.46;96813.84;5074112;28;20032;-28
2022/07/25 07:46:12;;;;;;;6.63;5.90;;;;;;;29.83;42.72;96823.03;5073872;28;20485;-30
2022/07/25 07:48:37;;;;;;;7.82;5.90;;;;;;;29.86;42.00;96818.41;5074014;28;20632;-29
2022/07/25 07:51:03;;;;;;;9.30;6.68;;;;;;;29.63;42.69;96816.16;5073792;28;20021;-28
2022/07/25 07:56:16;;;;;;;6.47;5.82;;;;;;;29.84;42.16;96818.19;5052697;28;20082;-29
2022/07/25 07:58:42;;;;;;;7.47;6.20;;;;;;;29.86;41.92;96819.16;5073911;28;20025;-28
2022/07/25 08:01:07;;;;;;;7.45;6.22;;;;;;;29.92;41.92;96813.44;5073607;28;20035;-28
2022/07/25 08:03:33;;;;;;;7.05;6.30;;;;;;;29.88;42.38;96816.56;5073832;28;20025;-29
2022/07/25 08:05:58;;;;;;;7.95;6.60;;;;;;;29.86;41.93;96827.53;5073835;28;20111;-29
2022/07/25 08:08:24;;;;;;;9.88;6.00;;;;;;;29.87;42.00;96828.28;5073500;28;20032;-28
2022/07/25 08:10:50;;;;;;;8.27;6.07;;;;;;;29.85;41.95;96822.50;5073299;28;20044;-29
2022/07/25 08:13:19;;;;;;;6.97;6.25;;;;;;;29.89;41.91;96825.72;5073573;28;20029;-28
2022/07/25 08:15:47;;;;;;;11.10;6.38;;;;;;;29.74;41.86;96819.97;5073416;28;20017;-28
2022/07/25 08:18:13;;;;;;;9.40;6.22;;;;;;;29.74;41.80;96836.75;5073358;28;20040;-28
2022/07/25 08:20:39;;;;;;;9.05;6.05;;;;;;;29.82;41.68;96824.34;5073649;28;20025;-28
2022/07/25 08:23:07;;;;;;;7.47;6.50;;;;;;;29.65;41.93;96821.97;5073569;28;20047;-28
2022/07/25 08:25:34;;;;;;;7.70;6.10;;;;;;;29.61;42.04;96823.59;5073477;28;20028;-28
2022/07/25 08:27:59;;;;;;;9.25;6.28;;;;;;;29.59;42.11;96821.34;5073525;28;20025;-29
2022/07/25 08:30:25;;;;;;;8.68;6.15;;;;;;;29.64;41.62;96822.50;5073161;28;20047;-28
2022/07/25 08:32:53;;;;;;;10.23;6.60;;;;;;;29.46;41.76;96818.63;5073439;28;20371;-28
2022/07/25 08:35:20;;;;;;;10.35;6.75;;;;;;;29.67;41.84;96824.94;5073143;28;20024;-28
2022/07/25 08:37:46;;;;;;;7.93;6.03;;;;;;;29.86;41.36;96824.00;5072430;28;20063;-28
2022/07/25 08:40:14;;;;;;;8.13;5.90;;;;;;;29.90;41.01;96832.81;5073229;28;20048;-28
2022/07/25 08:42:40;;;;;;;8.38;6.10;;;;;;;29.72;38.97;96828.91;5073077;28;20158;-29
2022/07/25 08:45:08;;;;;;;7.93;5.55;;;;;;;29.68;33.80;96834.09;5073306;28;20107;-29
2022/07/25 08:47:34;;;;;;;6.75;5.90;;;;;;;29.66;39.42;96833.91;5088169;28;20111;-28
2022/07/25 08:50:06;;;;;;;7.45;6.72;;;;;;;29.82;39.59;96826.38;5093538;28;20024;-28
2022/07/25 08:52:35;;;;;;;7.55;5.60;;;;;;;29.84;39.23;96829.38;5093190;28;20089;-29
2022/07/25 08:55:14;;;;;;;9.07;5.88;;;;;;;29.73;39.50;96827.63;5093807;28;20065;-29
2022/07/25 08:57:42;;;;;;;6.88;6.18;;;;;;;29.87;39.70;96840.22;5093214;28;20031;-29
2022/07/25 09:00:10;;;;;;;7.00;6.30;;;;;;;29.88;39.24;96824.22;5093112;28;20386;-28
2022/07/25 09:02:36;;;;;;;7.97;6.05;;;;;;;29.87;39.63;96829.03;5093250;28;20016;-28
2022/07/25 09:05:02;;;;;;;8.32;6.30;;;;;;;29.87;38.70;96823.44;5089667;28;20027;-28
2022/07/25 09:07:31;;;;;;;7.60;5.95;;;;;;;29.83;38.65;96825.84;5084428;28;20118;-29
2022/07/25 09:09:57;;;;;;;9.75;5.60;;;;;;;29.68;37.90;96822.91;5073425;28;20048;-29
2022/07/25 09:12:27;;;;;;;7.00;6.13;;;;;;;29.76;38.27;96825.78;5076477;28;20382;-29
2022/07/25 09:14:53;;;;;;;7.47;6.25;;;;;;;29.70;38.90;96825.16;5076550;28;20074;-29
2022/07/25 09:17:18;;;;;;;7.45;6.25;;;;;;;29.77;38.95;96824.50;5078869;28;20032;-28
2022/07/25 09:19:55;;;;;;;8.32;6.50;;;;;;;29.82;38.46;96826.38;5085754;28;20030;-29
2022/07/25 09:22:20;;;;;;;12.70;6.32;;;;;;;29.77;38.33;96821.69;5091661;28;20024;-28
2022/07/25 09:24:46;;;;;;;6.82;6.13;;;;;;;29.78;38.53;96821.16;5092958;28;20027;-28
2022/07/25 09:27:13;;;;;;;6.68;5.82;;;;;;;29.88;38.33;96827.00;5092854;28;20020;-30
2022/07/25 09:29:43;;;;;;;6.82;5.97;;;;;;;29.53;38.64;96820.75;5093272;28;20024;-28
2022/07/25 09:32:19;;;;;;;6.38;5.30;;;;;;;29.46;38.93;96813.03;5092808;28;20031;-30
2022/07/25 09:34:47;;;;;;;8.70;5.93;;;;;;;29.72;38.32;96812.13;5093128;28;20099;-28
2022/07/25 09:37:15;;;;;;;6.78;6.07;;;;;;;29.82;37.85;96813.16;5092864;28;20031;-28
2022/07/25 09:39:46;;;;;;;11.27;6.03;;;;;;;29.87;37.97;96812.28;5093044;28;20024;-28
2022/07/25 09:42:31;;;;;;;6.53;5.70;;;;;;;29.83;37.48;96809.06;5092857;28;20027;-28
2022/07/25 09:45:10;;;;;;;6.28;5.68;;;;;;;29.84;37.59;96807.00;5085983;28;20445;-28
2022/07/25 09:47:37;;;;;;;7.80;5.68;;;;;;;29.89;37.70;96797.75;5070809;28;20024;-29
2022/07/25 09:50:04;;;;;;;6.30;5.70;;;;;;;29.93;37.19;96798.13;5072984;28;20040;-28
2022/07/25 09:52:30;;;;;;;7.35;5.82;;;;;;;29.93;37.21;96798.13;5074269;28;20039;-30
2022/07/25 09:54:56;;;;;;;8.75;5.68;;;;;;;29.97;36.98;96798.56;5073930;28;20107;-29
2022/07/25 09:57:22;;;;;;;7.45;5.88;;;;;;;29.89;37.15;96800.53;5074080;28;20021;-28
2022/07/25 09:59:49;;;;;;;7.78;5.72;;;;;;;29.74;37.76;96797.63;5072651;28;20446;-29
2022/07/25 10:02:24;;;;;;;7.00;6.05;;;;;;;29.72;37.43;96798.16;5072630;28;20024;-28
2022/07/25 10:05:13;;;;;;;6.72;6.03;;;;;;;29.93;37.65;96803.72;5092834;28;20114;-28
2022/07/25 10:07:51;;;;;;;6.97;5.97;;;;;;;29.86;37.44;96794.00;5096056;28;20020;-28
2022/07/25 10:10:29;;;;;;;7.35;5.85;;;;;;;29.87;37.56;96795.50;5094489;28;20052;-30
2022/07/25 10:13:27;;;;;;;8.75;5.97;;;;;;;29.94;37.55;96783.59;5096026;28;20028;-28
2022/07/25 10:15:53;;;;;;;7.40;6.10;;;;;;;29.87;37.54;96783.56;5095919;28;20024;-28
2022/07/25 10:18:24;;;;;;;6.90;5.75;;;;;;;29.88;37.71;96787.84;5095767;28;20016;-29
2022/07/25 10:20:54;;;;;;;6.18;5.57;;;;;;;29.96;37.82;96785.88;5095672;28;20020;-28
2022/07/25 10:23:23;;;;;;;8.18;5.90;;;;;;;29.92;38.08;96788.28;5095806;28;20031;-28
2022/07/25 10:26:00;;;;;;;8.02;6.18;;;;;;;29.91;37.88;96776.34;5095867;28;20078;-29
2022/07/25 10:28:40;;;;;;;6.38;5.55;;;;;;;29.96;37.42;96774.69;5095545;28;20020;-28
2022/07/25 10:31:35;;;;;;;7.47;6.05;;;;;;;29.98;38.02;96783.28;5095543;28;20016;-28
2022/07/25 10:34:03;;;;;;;6.55;6.00;;;;;;;29.85;37.79;96786.16;5095445;28;20448;-30
2022/07/25 10:36:49;;;;;;;8.02;6.20;;;;;;;29.89;37.65;96770.53;5095175;28;20107;-28
2022/07/25 10:39:18;;;;;;;11.10;6.30;;;;;;;29.85;38.04;96772.16;5094855;28;20110;-29
2022/07/25 10:41:58;;;;;;;6.97;5.93;;;;;;;29.91;38.05;96772.78;5095150;28;20070;-29
2022/07/25 10:44:29;;;;;;;6.95;6.18;;;;;;;29.93;37.79;96762.53;5095717;28;20112;-29
2022/07/25 10:47:13;;;;;;;7.63;6.20;;;;;;;29.97;37.66;96779.00;5095380;28;20032;-28
2022/07/25 10:49:44;;;;;;;8.02;6.40;;;;;;;29.75;37.89;96757.94;5094895;28;20023;-28
2022/07/25 10:52:16;;;;;;;7.07;5.97;;;;;;;29.97;37.66;96753.84;5094024;28;20028;-29
2022/07/25 10:54:52;;;;;;;8.45;6.43;;;;;;;29.97;37.62;96760.16;5094883;28;20034;-28
2022/07/25 10:57:18;;;;;;;8.15;6.55;;;;;;;30.03;36.84;96756.50;5095182;28;20028;-28
2022/07/25 10:59:44;;;;;;;6.97;6.25;;;;;;;30.04;36.94;96746.81;5094815;28;20016;-28
2022/07/25 11:02:15;;;;;;;6.40;5.80;;;;;;;30.07;36.90;96748.47;5093594;28;20039;-28
2022/07/25 11:04:42;;;;;;;7.65;6.15;;;;;;;29.87;37.26;96747.22;5095068;28;20016;-29
2022/07/25 11:07:09;;;;;;;7.43;6.72;;;;;;;29.85;37.09;96747.75;5094844;28;20059;-28
2022/07/25 11:09:34;;;;;;;7.00;6.30;;;;;;;29.95;36.78;96748.75;5094642;28;20123;-28
2022/07/25 11:12:00;;;;;;;10.60;6.43;;;;;;;29.82;37.05;96736.91;5094428;28;20103;-28
2022/07/25 11:14:42;;;;;;;8.60;6.82;;;;;;;29.92;37.05;96729.56;5094656;28;20477;-29
2022/07/25 11:17:14;;;;;;;6.78;5.90;;;;;;;29.80;36.91;96742.31;5094500;28;20066;-28
2022/07/25 11:19:41;;;;;;;;;;;;;;;29.78;36.83;96736.53;5095103;28;20529;-28
2022/07/25 11:22:08;;;;;;;9.15;6.65;;;;;;;29.85;36.41;96735.81;5094562;28;19990;-28
2022/07/25 11:24:37;;;;;;;7.05;5.97;;;;;;;29.77;35.88;96740.63;5094751;28;20031;-28
2022/07/25 11:27:03;;;;;;;7.38;6.07;;;;;;;29.87;36.53;96738.81;5094351;28;20024;-28
2022/07/25 11:29:28;;;;;;;6.40;5.80;;;;;;;29.76;36.72;96734.28;5093926;28;20040;-28
2022/07/25 11:31:59;;;;;;;7.20;6.40;;;;;;;29.83;36.41;96727.22;5094264;28;20032;-29
2022/07/25 11:34:31;;;;;;;7.43;6.40;;;;;;;29.86;36.32;96721.31;5094252;28;20469;-29
2022/07/25 11:36:59;;;;;;;6.82;5.90;;;;;;;29.76;36.09;96722.34;5094278;28;20118;-28